createdAt,value
2022-08-12T04:00:32.378Z,52.84
2022-08-12T04:05:55.973Z,52.55
2022-08-12T04:10:33.274Z,52.34
2022-08-12T04:15:39.245Z,52.24
2022-08-12T04:20:32.159Z,52.44
2022-08-12T04:25:32.104Z,52.84
2022-08-12T04:30:33.741Z,52.64
2022-08-12T04:35:31.992Z,51.94
2022-08-12T04:40:31.952Z,52.64
2022-08-12T04:45:31.876Z,51.74
2022-08-12T04:50:35.849Z,52.14
2022-08-12T04:55:31.782Z,51.54
2022-08-12T05:00:31.727Z,51.74
2022-08-12T05:05:35.864Z,51.74
2022-08-12T05:10:33.990Z,50.34
2022-08-12T05:15:31.567Z,49.84
2022-08-12T05:20:31.496Z,49.84
2022-08-12T05:25:31.454Z,48.43
2022-08-12T05:30:31.408Z,44.02
2022-08-12T05:35:31.335Z,40.61
2022-08-12T05:40:31.292Z,38.90
2022-08-12T05:45:31.239Z,38.51
2022-08-12T05:50:31.183Z,38.60
2022-08-12T05:55:31.597Z,38.90
2022-08-12T06:00:31.087Z,38.70
2022-08-12T06:05:31.015Z,39.11
2022-08-12T06:10:32.801Z,39.61
2022-08-12T06:15:30.924Z,40.51
2022-08-12T06:20:33.636Z,39.40
2022-08-12T06:25:30.821Z,39.51
2022-08-12T06:30:36.932Z,39.40
2022-08-12T06:35:46.726Z,39.11
2022-08-12T06:40:31.667Z,40.31
2022-08-12T06:45:45.997Z,40.51
2022-08-12T06:50:31.579Z,40.31
2022-08-12T06:55:30.527Z,39.40
2022-08-12T07:00:32.354Z,40.41
2022-08-12T07:05:30.414Z,41.11
2022-08-12T07:10:30.374Z,41.51
2022-08-12T07:15:30.303Z,41.41
2022-08-12T07:20:51.691Z,42.32
2022-08-12T07:25:31.224Z,43.02
2022-08-12T07:30:31.151Z,44.22
2022-08-12T07:35:30.112Z,44.82
2022-08-12T07:40:30.070Z,45.32
2022-08-12T07:45:29.999Z,47.03
2022-08-12T07:50:29.958Z,47.33
2022-08-12T07:55:29.922Z,48.03
2022-08-12T08:00:29.847Z,48.13
2022-08-12T08:05:29.809Z,48.13
2022-08-12T08:10:29.769Z,48.53
2022-08-12T08:15:51.067Z,48.63
2022-08-12T08:20:30.652Z,48.73
2022-08-12T08:25:36.165Z,49.23
2022-08-12T08:30:29.564Z,49.13
2022-08-12T08:35:46.444Z,48.93
2022-08-12T08:40:30.538Z,49.13
2022-08-12T08:45:29.398Z,49.13
2022-08-12T08:50:29.357Z,49.23
2022-08-12T08:55:48.004Z,49.43
2022-08-12T09:00:30.238Z,49.23
2022-08-12T09:05:43.026Z,49.13
2022-08-12T09:20:30.044Z,48.83
2022-08-12T09:30:41.253Z,48.63
2022-08-12T09:35:29.876Z,48.43
2022-08-12T09:41:02.204Z,48.43
2022-08-12T09:46:20.023Z,48.03
2022-08-12T09:50:29.722Z,48.03
2022-08-12T09:56:01.206Z,48.53
2022-08-12T10:00:37.445Z,48.33
2022-08-12T10:06:20.312Z,48.33
2022-08-12T10:10:30.238Z,48.03
2022-08-12T10:16:02.896Z,47.73
2022-08-12T10:21:40.033Z,46.19
2022-08-12T10:26:39.981Z,46.39
2022-08-12T10:31:46.908Z,46.39
2022-08-12T10:36:42.902Z,46.09
2022-08-12T10:41:58.057Z,46.09
2022-08-12T10:46:40.779Z,46.19
2022-08-12T10:52:03.752Z,46.87
2022-08-12T10:56:40.677Z,46.48
2022-08-12T11:04:20.702Z,46.58
2022-08-12T11:07:05.629Z,46.29
2022-08-12T11:12:35.472Z,46.58
2022-08-12T11:16:40.468Z,46.19
2022-08-12T11:21:58.397Z,46.58
2022-08-12T11:26:40.364Z,46.48
2022-08-12T11:31:40.886Z,46.39
2022-08-12T11:36:40.785Z,46.19
2022-08-12T11:51:57.800Z,46.58
2022-08-12T11:56:11.400Z,46.39
2022-08-12T12:06:12.054Z,46.09
2022-08-12T12:11:10.999Z,46.19
2022-08-12T12:16:10.958Z,46.19
2022-08-12T12:21:10.902Z,46.19
2022-08-12T12:26:34.935Z,46.09
2022-08-12T12:31:15.113Z,45.81
2022-08-12T12:36:20.822Z,46.09
2022-08-12T12:41:16.491Z,46.00
2022-08-12T12:46:11.640Z,46.09
2022-08-12T12:51:10.716Z,46.09
2022-08-12T12:56:10.551Z,46.19
2022-08-12T13:01:26.843Z,46.00
2022-08-12T13:06:11.449Z,46.09
2022-08-12T13:11:10.394Z,45.90
2022-08-12T13:16:14.228Z,46.09
2022-08-12T13:21:15.884Z,45.90
2022-08-12T13:26:14.522Z,46.19
2022-08-12T13:31:10.193Z,46.97
2022-08-12T13:36:10.228Z,46.00
2022-08-12T13:41:11.145Z,46.19
2022-08-12T13:46:12.166Z,46.00
2022-08-12T13:51:10.766Z,46.67
2022-08-12T13:56:09.935Z,46.19
2022-08-12T14:01:09.872Z,46.67
2022-08-12T14:06:09.840Z,46.67
2022-08-12T14:11:12.539Z,46.67
2022-08-12T14:16:09.724Z,46.87
2022-08-12T14:21:09.677Z,47.06
2022-08-12T14:26:12.101Z,46.67
2022-08-12T14:31:18.111Z,46.67
2022-08-12T14:36:10.522Z,46.77
2022-08-12T14:41:09.468Z,46.77
2022-08-12T14:46:09.415Z,46.87
2022-08-12T14:52:54.965Z,46.77
2022-08-12T15:01:11.343Z,46.67
2022-08-12T15:06:43.940Z,46.97
2022-08-12T15:11:10.165Z,46.48
2022-08-12T15:16:09.121Z,46.58
2022-08-12T15:21:11.674Z,46.58
2022-08-12T15:26:09.006Z,46.48
2022-08-12T15:31:27.429Z,46.58
2022-08-12T15:36:09.898Z,46.77
2022-08-12T15:41:08.845Z,46.67
2022-08-12T15:46:08.821Z,46.58
2022-08-12T15:51:09.742Z,46.67
2022-08-12T15:56:08.690Z,46.67
2022-08-12T16:01:08.642Z,46.58
2022-08-12T16:06:12.030Z,46.58
2022-08-12T16:11:14.764Z,46.77
2022-08-12T16:16:23.087Z,46.67
2022-08-12T16:21:09.548Z,47.45
2022-08-12T16:26:14.528Z,47.26
2022-08-12T16:31:10.138Z,47.26
2022-08-12T16:36:08.272Z,47.74
2022-08-12T16:41:08.230Z,47.36
2022-08-12T16:46:31.338Z,47.16
2022-08-12T16:51:09.793Z,48.22
2022-08-12T16:56:08.069Z,48.13
2022-08-12T17:01:08.063Z,47.94
2022-08-12T17:06:09.689Z,48.22
2022-08-12T17:11:08.339Z,48.03
2022-08-12T17:16:17.838Z,48.03
2022-08-12T17:21:08.798Z,48.13
2022-08-12T17:26:07.748Z,48.71
2022-08-12T17:31:07.693Z,48.61
2022-08-12T17:36:07.719Z,48.42
2022-08-12T17:41:22.524Z,48.42
2022-08-12T17:46:12.631Z,48.42
2022-08-12T17:51:08.415Z,48.42
2022-08-12T17:56:07.436Z,48.42
2022-08-12T18:01:10.995Z,48.42
2022-08-12T18:06:14.023Z,47.94
2022-08-12T18:11:11.929Z,48.22
2022-08-12T18:16:07.221Z,48.22
2022-08-12T18:21:07.160Z,48.42
2022-08-12T18:26:16.866Z,48.32
2022-08-12T18:31:08.055Z,48.32
2022-08-12T18:36:06.995Z,48.52
2022-08-12T18:41:09.747Z,48.81
2022-08-12T18:46:06.888Z,48.61
2022-08-12T18:51:06.835Z,48.42
2022-08-12T18:56:06.780Z,48.42
2022-08-12T19:01:08.718Z,48.42
2022-08-12T19:06:07.680Z,48.32
2022-08-12T19:11:07.833Z,49.19
2022-08-12T19:16:06.565Z,49.29
2022-08-12T19:21:15.717Z,49.10
2022-08-12T19:26:12.338Z,49.19
2022-08-12T19:31:07.397Z,48.42
2022-08-12T19:36:08.178Z,48.61
2022-08-12T19:41:07.357Z,48.71
2022-08-12T19:46:06.244Z,48.71
2022-08-12T19:51:22.784Z,48.03
2022-08-12T19:56:07.138Z,48.03
2022-08-12T20:01:11.089Z,48.42
2022-08-12T20:06:11.151Z,48.42
2022-08-12T20:12:13.270Z,48.03
2022-08-12T20:16:06.923Z,48.61
2022-08-12T20:21:14.704Z,47.64
2022-08-12T20:26:08.789Z,47.74
2022-08-12T20:31:05.754Z,48.13
2022-08-12T20:36:13.446Z,47.84
2022-08-12T20:41:17.587Z,48.13
2022-08-12T20:46:06.599Z,48.22
2022-08-12T20:51:05.543Z,48.22
2022-08-12T20:56:05.479Z,48.03
2022-08-12T21:01:05.491Z,48.32
2022-08-12T21:06:12.890Z,48.03
2022-08-12T21:11:05.329Z,48.13
2022-08-12T21:16:05.277Z,48.22
2022-08-12T21:21:05.218Z,48.42
2022-08-12T21:26:05.165Z,48.03
2022-08-12T21:32:35.510Z,48.32
2022-08-12T21:36:06.052Z,48.03
2022-08-12T21:41:09.224Z,47.84
2022-08-12T21:46:04.946Z,47.84
2022-08-12T21:51:22.974Z,47.16
2022-08-12T21:56:05.839Z,47.64
2022-08-12T22:01:04.844Z,47.36
2022-08-12T22:06:05.738Z,47.36
2022-08-12T22:11:04.667Z,47.84
2022-08-12T22:16:04.639Z,48.13
2022-08-12T22:21:04.567Z,48.13
2022-08-12T22:26:04.540Z,47.36
2022-08-12T22:31:04.452Z,47.84
2022-08-12T22:36:04.399Z,47.55
2022-08-12T22:41:04.350Z,47.36
2022-08-12T22:46:04.296Z,46.87
2022-08-12T22:51:04.239Z,47.16
2022-08-12T22:56:06.100Z,47.74
2022-08-12T23:01:04.169Z,46.77
2022-08-12T23:06:09.967Z,46.97
2022-08-12T23:11:05.833Z,47.06
2022-08-12T23:16:03.967Z,47.06
2022-08-12T23:21:03.909Z,46.97
2022-08-12T23:26:03.859Z,47.06
